Time;durP1;ratioP1;P1;durP2;ratioP2;P2;SDS_P1;SDS_P2;PMS_P1;PMS_P2;Temp;Humidity;BMP_temperature;BMP_pressure;BME280_temperature;BME280_humidity;BME280_pressure;Samples;Min_cycle;Max_cycle;Signal;HPM_P1;HPM_P2
2022/06/30 00:02:06;;;;;;;11.88;10.73;;;19.10;99.90;;;;;;5077302;28;20169;-77
2022/06/30 00:04:31;;;;;;;12.35;11.15;;;19.00;99.90;;;;;;5077389;28;20207;-77
2022/06/30 00:06:57;;;;;;;13.00;11.73;;;19.00;99.90;;;;;;5043552;28;20262;-77
2022/06/30 00:09:23;;;;;;;12.85;11.65;;;19.00;99.90;;;;;;5060535;28;20165;-77
2022/06/30 00:11:48;;;;;;;12.90;11.70;;;19.00;99.90;;;;;;5060433;28;20215;-77
2022/06/30 00:14:14;;;;;;;11.65;10.55;;;19.00;99.90;;;;;;5043554;28;20553;-77
2022/06/30 00:16:39;;;;;;;12.88;11.68;;;18.90;99.90;;;;;;5060407;28;20188;-77
2022/06/30 00:19:05;;;;;;;12.73;11.57;;;18.80;99.90;;;;;;5043553;28;20267;-77
2022/06/30 00:21:30;;;;;;;14.05;12.63;;;18.80;99.90;;;;;;5060126;28;20199;-77
2022/06/30 00:23:56;;;;;;;12.70;11.40;;;18.80;99.90;;;;;;5058899;28;20185;-77
2022/06/30 00:26:22;;;;;;;13.07;11.88;;;18.70;99.90;;;;;;5043307;28;20207;-77
2022/06/30 00:28:47;;;;;;;13.30;12.10;;;18.80;99.90;;;;;;5076695;28;20179;-77
2022/06/30 00:31:13;;;;;;;13.02;11.75;;;18.90;99.90;;;;;;5043344;28;20195;-77
2022/06/30 00:33:39;;;;;;;11.60;10.57;;;18.90;99.90;;;;;;5059993;28;20172;-77
2022/06/30 00:36:04;;;;;;;11.45;10.38;;;18.80;99.90;;;;;;5043385;28;20184;-77
2022/06/30 00:38:30;;;;;;;12.55;11.35;;;18.80;99.90;;;;;;5043493;28;20263;-77
2022/06/30 00:40:55;;;;;;;12.32;11.23;;;18.80;99.90;;;;;;5060001;28;20319;-77
2022/06/30 00:43:21;;;;;;;11.57;10.57;;;18.80;99.90;;;;;;5042859;28;20191;-77
2022/06/30 00:45:48;;;;;;;12.27;11.07;;;18.60;99.90;;;;;;5043225;28;20214;-77
2022/06/30 00:48:16;;;;;;;11.52;10.52;;;18.60;99.90;;;;;;5094258;28;20173;-77
2022/06/30 00:50:42;;;;;;;12.98;11.68;;;18.50;99.90;;;;;;5075893;28;20211;-77
2022/06/30 00:53:09;;;;;;;12.57;11.48;;;18.40;99.90;;;;;;5093975;28;20217;-77
2022/06/30 00:55:35;;;;;;;11.80;10.57;;;18.40;99.90;;;;;;5076010;28;20552;-77
2022/06/30 00:58:07;;;;;;;11.93;10.82;;;18.40;99.90;;;;;;5076114;28;20173;-77
2022/06/30 01:00:35;;;;;;;12.83;11.47;;;18.30;99.90;;;;;;5075828;28;20196;-77
2022/06/30 01:03:01;;;;;;;12.77;11.63;;;18.20;99.90;;;;;;5059446;28;20184;-77
2022/06/30 01:05:27;;;;;;;12.97;11.10;;;18.20;99.90;;;;;;5059553;28;20204;-77
2022/06/30 01:07:54;;;;;;;12.43;11.23;;;18.10;99.90;;;;;;5059333;28;20623;-77
2022/06/30 01:13:05;;;;;;;11.67;10.57;;;18.20;99.90;;;;;;5094009;28;20171;-77
2022/06/30 01:15:31;;;;;;;12.57;11.27;;;18.10;99.90;;;;;;5075493;28;20176;-77
2022/06/30 01:17:56;;;;;;;14.00;12.07;;;18.00;99.90;;;;;;5059365;28;20694;-77
2022/06/30 01:20:31;;;;;;;13.37;12.17;;;18.00;99.90;;;;;;5058780;28;20203;-77
2022/06/30 01:22:58;;;;;;;14.30;12.02;;;18.10;99.90;;;;;;5042938;28;20176;-77
2022/06/30 01:25:24;;;;;;;23.50;18.27;;;18.10;99.90;;;;;;5059210;28;20223;-77
2022/06/30 01:27:54;;;;;;;180.33;21.83;;;18.10;99.90;;;;;;5093506;28;20179;-77
2022/06/30 01:30:20;;;;;;;11.83;10.67;;;18.10;99.90;;;;;;5075375;28;20196;-77
2022/06/30 01:32:46;;;;;;;11.60;10.47;;;17.90;99.90;;;;;;5075519;28;20183;-77
2022/06/30 01:35:12;;;;;;;12.53;11.33;;;18.00;99.90;;;;;;5074825;28;20180;-77
2022/06/30 01:37:44;;;;;;;12.77;11.57;;;18.00;99.90;;;;;;5058732;28;20207;-77
2022/06/30 01:40:10;;;;;;;12.33;11.20;;;18.00;99.90;;;;;;5093243;28;20677;-77
2022/06/30 01:42:36;;;;;;;13.17;11.77;;;17.90;99.90;;;;;;5075269;28;20695;-77
2022/06/30 01:45:01;;;;;;;13.67;12.37;;;17.80;99.90;;;;;;5058741;28;20184;-77
2022/06/30 01:47:27;;;;;;;12.63;11.43;;;17.90;99.90;;;;;;5058774;28;20276;-77
2022/06/30 01:49:53;;;;;;;11.30;10.30;;;17.80;99.90;;;;;;5075079;28;20506;-77
2022/06/30 01:52:18;;;;;;;13.13;11.73;;;17.90;99.90;;;;;;5042067;28;20172;-77
2022/06/30 01:54:44;;;;;;;14.03;12.47;;;18.00;99.90;;;;;;5041761;28;20182;-77
2022/06/30 01:57:09;;;;;;;13.00;11.70;;;18.10;99.90;;;;;;5041722;28;20199;-77
2022/06/30 01:59:35;;;;;;;15.80;12.10;;;17.90;99.90;;;;;;5041954;28;20180;-77
2022/06/30 02:02:00;;;;;;;85.70;13.60;;;17.90;99.90;;;;;;5074959;28;20263;-77
2022/06/30 02:07:10;;;;;;;11.90;10.80;;;17.80;99.90;;;;;;5078008;28;20195;-77
2022/06/30 02:09:36;;;;;;;12.13;10.93;;;17.80;99.90;;;;;;5074854;28;20203;-77
2022/06/30 02:14:46;;;;;;;12.47;11.27;;;18.10;99.90;;;;;;5093182;28;20183;-77
2022/06/30 02:17:11;;;;;;;12.50;11.00;;;18.10;99.90;;;;;;5041983;28;20627;-77
2022/06/30 02:19:37;;;;;;;12.43;11.23;;;18.00;99.90;;;;;;5058179;28;20275;-77
2022/06/30 02:22:02;;;;;;;13.03;11.67;;;17.90;99.90;;;;;;5057883;28;20180;-77
2022/06/30 02:24:28;;;;;;;12.43;11.13;;;18.00;99.90;;;;;;5041751;28;20240;-77
2022/06/30 02:26:54;;;;;;;12.73;11.53;;;17.90;99.90;;;;;;5041599;28;20204;-77
2022/06/30 02:29:19;;;;;;;12.43;10.93;;;17.90;99.90;;;;;;5041343;28;20266;-77
2022/06/30 02:31:45;;;;;;;11.90;10.80;;;17.90;99.90;;;;;;5041082;28;20196;-77
2022/06/30 02:34:10;;;;;;;13.77;12.17;;;17.70;99.90;;;;;;5057936;28;20180;-77
2022/06/30 02:36:36;;;;;;;12.37;11.17;;;17.60;99.90;;;;;;5057847;28;20180;-77
2022/06/30 02:39:01;;;;;;;12.43;11.10;;;17.70;99.90;;;;;;5058150;28;20204;-77
2022/06/30 02:41:27;;;;;;;18.03;12.00;;;17.70;99.90;;;;;;5041066;28;20294;-77
2022/06/30 02:43:52;;;;;;;12.67;11.00;;;17.70;99.90;;;;;;5057730;28;20305;-77
2022/06/30 02:46:18;;;;;;;14.63;11.30;;;17.70;99.90;;;;;;5041074;28;20200;-77
2022/06/30 02:48:44;;;;;;;13.77;12.30;;;17.80;99.90;;;;;;5044403;28;20188;-77
2022/06/30 02:51:10;;;;;;;12.43;11.13;;;17.80;99.90;;;;;;5045276;28;20568;-77
2022/06/30 02:53:36;;;;;;;12.70;11.03;;;17.70;99.90;;;;;;5078261;28;20263;-77
2022/06/30 02:56:01;;;;;;;14.87;11.93;;;17.60;99.90;;;;;;5044750;28;20271;-77
2022/06/30 02:58:27;;;;;;;13.70;12.00;;;17.70;99.90;;;;;;5078369;28;20182;-77
2022/06/30 03:00:52;;;;;;;12.97;11.67;;;17.80;99.90;;;;;;5045115;28;20231;-77
2022/06/30 03:03:18;;;;;;;12.00;10.53;;;17.70;99.90;;;;;;5061392;28;20177;-77
2022/06/30 03:05:43;;;;;;;12.97;11.30;;;17.60;99.90;;;;;;5061450;28;20220;-77
2022/06/30 03:08:09;;;;;;;13.43;12.13;;;17.50;99.90;;;;;;5061697;28;20233;-77
2022/06/30 03:10:35;;;;;;;13.57;12.07;;;17.40;99.90;;;;;;5061665;28;20667;-77
2022/06/30 03:13:00;;;;;;;12.53;10.83;;;17.30;99.90;;;;;;5061299;28;20176;-77
2022/06/30 03:15:26;;;;;;;10.80;9.73;;;17.20;99.90;;;;;;5078252;28;20267;-77
2022/06/30 03:17:52;;;;;;;9.93;8.97;;;17.30;99.90;;;;;;5045070;28;20553;-77
2022/06/30 03:20:18;;;;;;;12.40;11.10;;;17.20;99.90;;;;;;5061187;28;20716;-77
2022/06/30 03:22:43;;;;;;;10.73;9.63;;;17.20;99.90;;;;;;5078014;28;20172;-77
2022/06/30 03:25:09;;;;;;;11.97;10.47;;;17.00;99.90;;;;;;5061201;28;20218;-77
2022/06/30 03:27:35;;;;;;;12.10;10.90;;;17.20;99.90;;;;;;5061374;28;20233;-77
2022/06/30 03:30:00;;;;;;;11.53;10.43;;;17.20;99.90;;;;;;5061025;28;20195;-77
2022/06/30 03:32:26;;;;;;;12.40;10.93;;;17.20;99.90;;;;;;5044535;28;20266;-77
2022/06/30 03:34:51;;;;;;;11.13;10.13;;;17.20;99.90;;;;;;5060942;28;20172;-77
2022/06/30 03:37:17;;;;;;;12.30;11.00;;;17.10;99.90;;;;;;5060806;28;20661;-77
2022/06/30 03:39:42;;;;;;;11.83;10.60;;;17.00;99.90;;;;;;5061040;28;20172;-77
2022/06/30 03:42:08;;;;;;;11.43;10.37;;;17.00;99.90;;;;;;5060631;28;20176;-77
2022/06/30 03:44:34;;;;;;;12.37;11.10;;;17.00;99.90;;;;;;5061066;28;20177;-77
2022/06/30 03:47:00;;;;;;;13.37;11.97;;;17.00;99.90;;;;;;5060982;28;20200;-77
2022/06/30 03:49:27;;;;;;;12.97;11.67;;;17.20;99.90;;;;;;5061053;28;20168;-77
2022/06/30 03:51:52;;;;;;;12.03;10.83;;;17.30;99.90;;;;;;5050020;23;20228;-77
2022/06/30 03:54:19;;;;;;;12.63;11.03;;;17.30;99.90;;;;;;5036987;28;20558;-77
2022/06/30 03:56:45;;;;;;;11.90;10.80;;;17.30;99.90;;;;;;5037078;28;20188;-79
2022/06/30 03:59:10;;;;;;;11.30;10.20;;;17.40;99.90;;;;;;5053535;28;20272;-78
2022/06/30 04:01:36;;;;;;;9.27;8.37;;;17.40;99.90;;;;;;5033817;28;20279;-78
2022/06/30 04:04:01;;;;;;;11.13;9.80;;;17.20;99.90;;;;;;5033822;28;20183;-78
2022/06/30 04:06:27;;;;;;;9.87;8.87;;;17.10;99.90;;;;;;5035004;28;20672;-78
2022/06/30 04:08:53;;;;;;;10.80;9.70;;;17.10;99.90;;;;;;5033756;28;20220;-78
2022/06/30 04:11:18;;;;;;;11.53;10.33;;;17.10;99.90;;;;;;5017137;28;20191;-78
2022/06/30 04:13:44;;;;;;;11.60;10.40;;;17.10;99.90;;;;;;5033249;28;20703;-78
2022/06/30 04:16:10;;;;;;;12.50;11.20;;;17.10;99.90;;;;;;5016995;28;20186;-78
2022/06/30 04:18:35;;;;;;;13.30;12.00;;;17.20;99.90;;;;;;5033605;28;20178;-78
2022/06/30 04:21:01;;;;;;;13.13;11.80;;;17.20;99.90;;;;;;5016742;28;20213;-78
2022/06/30 04:23:26;;;;;;;12.50;11.20;;;17.20;99.90;;;;;;5033166;28;20188;-78
2022/06/30 04:25:52;;;;;;;12.40;11.07;;;17.20;99.90;;;;;;5033372;28;20641;-78
2022/06/30 04:28:17;;;;;;;12.67;10.73;;;17.30;99.90;;;;;;5033202;28;20182;-78
2022/06/30 04:33:27;;;;;;;14.23;11.47;;;17.30;99.90;;;;;;5033491;28;20180;-78
2022/06/30 04:35:53;;;;;;;13.03;11.73;;;17.30;99.90;;;;;;5016583;28;20269;-78
2022/06/30 04:38:18;;;;;;;13.50;12.10;;;17.30;99.90;;;;;;5032977;28;20183;-78
2022/06/30 04:43:28;;;;;;;11.50;10.30;;;17.30;99.90;;;;;;5021866;28;20196;-78
2022/06/30 04:45:53;;;;;;;11.70;10.50;;;18.00;99.90;;;;;;5035134;28;20273;-78
2022/06/30 04:48:19;;;;;;;9.87;8.87;;;18.20;99.90;;;;;;5018429;28;20178;-76
2022/06/30 04:50:45;;;;;;;10.60;9.60;;;18.70;99.90;;;;;;5032583;28;20210;-76
2022/06/30 04:53:11;;;;;;;10.60;9.60;;;19.40;99.90;;;;;;5032107;28;20186;-76
2022/06/30 04:55:36;;;;;;;11.10;9.77;;;19.80;99.90;;;;;;5032644;28;20186;-76
2022/06/30 04:58:02;;;;;;;13.83;11.50;;;19.70;99.90;;;;;;5049369;28;20182;-77
2022/06/30 05:00:28;;;;;;;11.23;9.93;;;19.60;99.90;;;;;;5032164;28;20303;-76
2022/06/30 05:02:54;;;;;;;11.53;9.73;;;19.90;99.90;;;;;;5015647;28;20182;-77
2022/06/30 05:05:20;;;;;;;11.20;10.10;;;20.10;99.90;;;;;;5015758;28;20210;-77
2022/06/30 05:07:45;;;;;;;12.83;11.27;;;20.10;99.90;;;;;;5032173;28;20273;-76
2022/06/30 05:10:11;;;;;;;13.93;12.53;;;20.00;99.90;;;;;;5031279;28;20206;-76
2022/06/30 05:12:37;;;;;;;12.30;11.07;;;19.80;99.90;;;;;;5015451;28;20215;-76
2022/06/30 05:15:03;;;;;;;15.00;12.97;;;19.60;99.90;;;;;;5032254;28;20174;-76
2022/06/30 05:17:28;;;;;;;13.60;11.97;;;19.30;99.90;;;;;;5032042;28;20178;-77
2022/06/30 05:19:54;;;;;;;17.03;14.67;;;19.30;99.90;;;;;;5016022;28;20210;-75
2022/06/30 05:22:19;;;;;;;13.37;12.07;;;19.20;99.90;;;;;;5015400;28;20181;-77
2022/06/30 05:27:29;;;;;;;14.17;12.60;;;19.60;99.90;;;;;;5019841;28;20166;-79
2022/06/30 05:29:55;;;;;;;15.07;13.47;;;19.40;99.90;;;;;;5036258;28;20170;-79
2022/06/30 05:32:21;;;;;;;18.40;14.93;;;19.40;99.90;;;;;;5035904;28;20185;-79
2022/06/30 05:34:46;;;;;;;15.73;12.43;;;19.40;99.90;;;;;;5018527;28;20178;-79
2022/06/30 05:37:13;;;;;;;15.00;13.40;;;19.30;99.90;;;;;;5033174;28;20236;-78
2022/06/30 05:39:39;;;;;;;17.60;12.70;;;19.30;99.90;;;;;;5032234;28;20179;-77
2022/06/30 05:42:05;;;;;;;16.87;14.93;;;19.80;99.90;;;;;;5032039;28;20198;-78
2022/06/30 05:44:30;;;;;;;17.40;13.13;;;19.90;99.90;;;;;;5017820;28;20180;-80
2022/06/30 05:46:56;;;;;;;16.20;14.52;;;19.80;99.90;;;;;;5034746;28;20205;-80
2022/06/30 05:49:25;;;;;;;17.83;14.95;;;20.10;99.90;;;;;;5052941;28;20182;-79
2022/06/30 05:51:51;;;;;;;17.53;14.47;;;20.00;99.90;;;;;;5032608;28;20214;-78
2022/06/30 05:54:17;;;;;;;18.65;15.95;;;19.80;99.90;;;;;;5050246;28;20666;-78
2022/06/30 05:56:43;;;;;;;17.00;15.23;;;19.50;99.90;;;;;;5032373;28;20277;-78
2022/06/30 05:59:09;;;;;;;15.43;12.80;;;19.80;99.90;;;;;;5032091;28;20182;-80
2022/06/30 06:01:35;;;;;;;14.95;12.93;;;19.90;99.90;;;;;;5051770;28;20198;-79
2022/06/30 06:04:00;;;;;;;17.77;13.98;;;20.20;99.90;;;;;;5034842;28;20729;-81
2022/06/30 06:06:26;;;;;;;15.65;14.05;;;20.30;99.90;;;;;;5018187;28;20748;-78
2022/06/30 06:08:52;;;;;;;18.52;16.48;;;20.60;99.90;;;;;;5017484;28;20189;-79
2022/06/30 06:11:17;;;;;;;17.10;15.38;;;20.40;99.90;;;;;;5036034;28;20198;-79
2022/06/30 06:13:43;;;;;;;16.65;14.95;;;20.40;99.90;;;;;;5020001;28;20205;-79
2022/06/30 06:16:08;;;;;;;18.02;16.25;;;20.40;99.90;;;;;;5017209;28;20202;-79
2022/06/30 06:18:34;;;;;;;17.88;15.98;;;20.60;99.90;;;;;;5037176;28;20667;-79
2022/06/30 06:21:00;;;;;;;19.65;17.55;;;20.50;99.90;;;;;;5036883;28;20205;-79
2022/06/30 06:23:26;;;;;;;18.73;16.75;;;20.60;99.90;;;;;;5037398;28;20179;-79
2022/06/30 06:25:51;;;;;;;18.70;16.63;;;20.40;99.90;;;;;;5021075;28;20214;-79
2022/06/30 06:31:02;;;;;;;19.50;16.73;;;20.30;99.90;;;;;;5033818;28;20205;-78
2022/06/30 06:33:28;;;;;;;18.30;16.40;;;20.40;99.90;;;;;;5014263;28;20178;-77
2022/06/30 06:35:54;;;;;;;18.13;15.18;;;20.50;99.90;;;;;;5030814;28;20277;-77
2022/06/30 06:38:20;;;;;;;15.45;13.85;;;20.70;99.90;;;;;;5031045;28;20186;-77
2022/06/30 06:40:46;;;;;;;16.35;14.65;;;20.80;99.90;;;;;;5030882;28;20201;-77
2022/06/30 06:43:11;;;;;;;15.48;13.75;;;20.90;99.90;;;;;;5030613;28;20185;-76
2022/06/30 06:45:37;;;;;;;13.13;11.77;;;21.00;99.90;;;;;;5030767;28;20202;-77
2022/06/30 06:48:03;;;;;;;15.05;13.48;;;21.20;99.90;;;;;;5014502;28;20182;-78
2022/06/30 06:50:29;;;;;;;15.38;13.88;;;21.30;99.90;;;;;;5014274;28;20236;-78
2022/06/30 06:52:55;;;;;;;11.98;10.82;;;21.30;99.90;;;;;;5014472;28;20645;-78
2022/06/30 06:55:21;;;;;;;14.25;12.88;;;21.40;99.90;;;;;;5030708;28;20197;-78
2022/06/30 06:57:47;;;;;;;14.10;12.68;;;21.50;99.90;;;;;;5030960;28;20232;-78
2022/06/30 07:00:12;;;;;;;14.70;13.30;;;21.60;99.90;;;;;;5014137;28;20696;-78
2022/06/30 07:02:39;;;;;;;14.48;13.07;;;21.70;99.90;;;;;;5030382;28;20205;-78
2022/06/30 07:05:06;;;;;;;14.30;12.80;;;21.90;99.90;;;;;;5047313;28;20175;-78
2022/06/30 07:07:31;;;;;;;12.77;11.23;;;22.00;99.90;;;;;;5030808;28;20185;-78
2022/06/30 07:09:57;;;;;;;14.63;13.07;;;22.00;99.90;;;;;;5030782;28;20178;-78
2022/06/30 07:12:23;;;;;;;14.02;12.05;;;22.10;99.90;;;;;;5014302;28;20174;-78
2022/06/30 07:14:49;;;;;;;15.95;13.38;;;22.30;99.90;;;;;;5014801;28;20170;-78
2022/06/30 07:17:15;;;;;;;13.40;12.10;;;22.40;99.90;;;;;;5031157;28;20247;-78
2022/06/30 07:19:42;;;;;;;12.38;11.27;;;22.50;99.90;;;;;;5030742;28;20190;-78
2022/06/30 07:22:08;;;;;;;12.90;11.60;;;22.60;99.90;;;;;;5014317;28;20294;-78
2022/06/30 07:24:34;;;;;;;13.07;11.77;;;22.80;99.90;;;;;;5030566;28;20265;-78
2022/06/30 07:27:00;;;;;;;13.15;11.85;;;22.90;99.90;;;;;;5030393;28;20202;-78
2022/06/30 07:29:26;;;;;;;13.52;12.20;;;22.90;99.90;;;;;;5046811;28;20174;-78
2022/06/30 07:31:52;;;;;;;12.75;11.52;;;22.90;99.90;;;;;;5046882;28;20198;-78
2022/06/30 07:34:18;;;;;;;12.10;10.80;;;23.00;99.90;;;;;;5016454;28;20555;-77
2022/06/30 07:36:44;;;;;;;11.85;10.73;;;23.00;99.90;;;;;;5017561;28;20175;-77
2022/06/30 07:39:10;;;;;;;14.60;11.40;;;23.10;99.90;;;;;;5034009;28;20230;-77
2022/06/30 07:41:35;;;;;;;12.23;10.93;;;23.20;99.90;;;;;;5017191;28;20206;-77
2022/06/30 07:44:01;;;;;;;11.07;10.10;;;23.20;99.90;;;;;;5033623;28;20174;-77
2022/06/30 07:46:27;;;;;;;11.05;10.00;;;23.30;99.90;;;;;;5033617;28;20202;-77
2022/06/30 07:48:53;;;;;;;10.70;9.70;;;23.30;99.90;;;;;;5017721;28;20380;-77
2022/06/30 07:51:20;;;;;;;10.07;9.07;;;23.50;99.90;;;;;;5033216;28;20308;-77
2022/06/30 07:53:46;;;;;;;11.02;9.93;;;23.60;99.90;;;;;;5016198;28;20653;-77
2022/06/30 07:56:12;;;;;;;10.35;9.45;;;23.80;99.90;;;;;;5050093;28;20183;-77
2022/06/30 07:58:38;;;;;;;9.50;8.60;;;24.10;99.90;;;;;;5033218;28;20174;-77
2022/06/30 08:01:04;;;;;;;9.65;8.75;;;24.30;99.90;;;;;;5033372;28;20293;-77
2022/06/30 08:03:30;;;;;;;10.98;9.27;;;24.40;99.90;;;;;;5033371;28;20178;-77
2022/06/30 08:05:55;;;;;;;11.02;9.23;;;24.50;99.90;;;;;;5049744;28;20672;-77
2022/06/30 08:08:21;;;;;;;9.73;8.73;;;24.70;99.90;;;;;;5050035;28;20174;-77
2022/06/30 08:10:46;;;;;;;9.50;8.60;;;24.80;99.90;;;;;;5049671;28;20190;-77
2022/06/30 08:13:12;;;;;;;9.80;8.80;;;24.80;99.90;;;;;;5032954;28;20206;-77
2022/06/30 08:15:38;;;;;;;9.90;8.98;;;24.80;99.90;;;;;;5049624;28;20182;-78
2022/06/30 08:18:06;;;;;;;10.55;8.82;;;24.80;99.90;;;;;;5033295;28;20179;-78
2022/06/30 08:20:31;;;;;;;9.10;8.30;;;24.90;99.90;;;;;;5049494;28;20571;-77
2022/06/30 08:22:57;;;;;;;8.73;7.90;;;25.00;99.90;;;;;;5021107;28;20187;-77
2022/06/30 08:25:24;;;;;;;10.00;8.20;;;25.00;99.90;;;;;;5013720;28;20294;-77
2022/06/30 08:27:49;;;;;;;8.20;7.28;;;25.20;99.90;;;;;;5030304;28;20271;-77
2022/06/30 08:30:15;;;;;;;8.30;7.50;;;25.30;99.90;;;;;;5013839;28;20631;-78
2022/06/30 08:32:41;;;;;;;10.50;7.65;;;25.40;99.90;;;;;;5013688;28;20182;-78
2022/06/30 08:35:07;;;;;;;7.90;7.20;;;25.50;99.90;;;;;;5013769;28;20194;-78
2022/06/30 08:43:38;;;;;;;8.38;7.60;;;26.00;99.90;;;;;;5014687;28;20241;-78
2022/06/30 08:46:07;;;;;;;7.90;7.10;;;25.90;99.90;;;;;;5012275;28;20199;-78
2022/06/30 08:48:32;;;;;;;8.20;7.28;;;25.90;99.90;;;;;;5029594;28;20645;-78
2022/06/30 08:51:03;;;;;;;8.30;7.47;;;25.90;99.90;;;;;;5013207;28;20285;-78
2022/06/30 08:53:37;;;;;;;8.98;7.68;;;26.10;99.90;;;;;;5013314;28;20177;-78
2022/06/30 08:56:05;;;;;;;8.57;7.68;;;26.30;99.90;;;;;;5013004;28;20167;-78
2022/06/30 08:58:31;;;;;;;8.73;7.82;;;26.00;99.90;;;;;;5029679;28;20190;-78
2022/06/30 09:00:57;;;;;;;8.27;7.45;;;25.70;99.90;;;;;;5012812;28;20199;-78
2022/06/30 09:03:23;;;;;;;8.57;7.50;;;25.50;99.90;;;;;;5012771;28;20258;-78
2022/06/30 09:05:49;;;;;;;9.70;7.97;;;25.30;99.90;;;;;;5045934;28;20282;-78
2022/06/30 09:08:17;;;;;;;8.38;7.65;;;25.20;99.90;;;;;;5029601;28;20281;-78
2022/06/30 09:10:54;;;;;;;8.30;7.50;;;25.20;99.90;;;;;;5029481;28;20199;-78
2022/06/30 09:13:20;;;;;;;8.15;7.45;;;25.10;99.90;;;;;;5029160;28;20700;-78
2022/06/30 09:15:47;;;;;;;8.27;7.47;;;25.30;99.90;;;;;;5012649;28;20175;-78
2022/06/30 09:18:26;;;;;;;8.23;7.53;;;25.70;99.90;;;;;;5028962;28;20183;-78
2022/06/30 09:20:52;;;;;;;7.40;6.70;;;26.00;99.90;;;;;;5013235;28;20245;-78
2022/06/30 09:23:29;;;;;;;7.65;6.90;;;26.30;99.90;;;;;;5047027;28;20638;-79
2022/06/30 09:25:58;;;;;;;8.07;6.60;;;26.60;99.90;;;;;;5030046;28;20207;-78
2022/06/30 09:29:18;;;;;;;8.45;6.82;;;27.00;99.90;;;;;;5014855;28;20167;-78
2022/06/30 09:31:44;;;;;;;7.07;6.47;;;26.80;99.90;;;;;;5030799;28;20337;-78
2022/06/30 09:34:19;;;;;;;7.45;6.72;;;27.00;99.90;;;;;;5029735;28;20220;-76
2022/06/30 09:36:53;;;;;;;8.68;6.88;;;27.50;99.90;;;;;;5029812;28;20170;-75
2022/06/30 09:39:21;;;;;;;6.97;6.28;;;27.80;99.90;;;;;;5013612;28;20246;-78
2022/06/30 09:41:49;;;;;;;7.05;6.10;;;28.10;99.90;;;;;;5030712;28;20203;-77
2022/06/30 09:44:20;;;;;;;6.50;5.90;;;28.40;99.90;;;;;;5012600;28;20237;-77
2022/06/30 09:47:10;;;;;;;7.03;6.15;;;28.50;99.90;;;;;;5012446;28;20253;-77
2022/06/30 09:49:44;;;;;;;6.78;5.93;;;28.70;99.90;;;;;;5012665;28;20254;-77
2022/06/30 09:52:20;;;;;;;6.50;5.65;;;28.60;99.90;;;;;;5075522;23;20727;-77
2022/06/30 09:54:54;;;;;;;6.72;6.00;;;28.80;99.90;;;;;;5054654;28;20168;-78
2022/06/30 09:57:22;;;;;;;6.43;5.82;;;28.60;99.90;;;;;;5072082;28;20168;-77
2022/06/30 10:00:04;;;;;;;6.95;6.35;;;28.40;99.90;;;;;;5054813;28;20181;-77
2022/06/30 10:02:33;;;;;;;7.28;6.47;;;28.30;99.90;;;;;;5018027;28;20185;-77
2022/06/30 10:04:59;;;;;;;6.40;5.85;;;28.70;99.90;;;;;;5034713;28;20177;-77
2022/06/30 10:07:26;;;;;;;6.82;6.03;;;28.90;99.90;;;;;;5017906;28;20205;-76
2022/06/30 10:09:52;;;;;;;7.28;6.18;;;28.90;99.90;;;;;;5050923;28;20176;-76
2022/06/30 10:12:24;;;;;;;7.32;6.07;;;29.20;99.90;;;;;;5034321;28;20194;-76
2022/06/30 10:14:51;;;;;;;12.65;8.48;;;29.10;99.90;;;;;;5034362;28;20185;-75
2022/06/30 10:17:21;;;;;;;13.32;7.55;;;29.40;99.90;;;;;;5052185;28;20172;-74
2022/06/30 10:19:46;;;;;;;38.13;12.85;;;29.50;99.90;;;;;;5034305;28;20182;-77
2022/06/30 10:22:13;;;;;;;153.10;39.10;;;29.70;99.90;;;;;;5001236;28;20288;-77
2022/06/30 10:24:42;;;;;;;111.63;30.50;;;30.00;99.90;;;;;;5050737;28;20650;-77
2022/06/30 10:27:15;;;;;;;6.43;5.68;;;30.20;99.90;;;;;;5018000;28;20698;-77
2022/06/30 10:29:52;;;;;;;5.72;5.15;;;30.30;99.90;;;;;;5035144;28;20295;-77
2022/06/30 10:32:40;;;;;;;16.02;8.25;;;30.40;99.90;;;;;;5051711;28;20186;-77
2022/06/30 10:35:18;;;;;;;6.22;5.60;;;30.20;99.90;;;;;;5051884;28;20231;-76
2022/06/30 10:38:08;;;;;;;6.10;5.55;;;29.90;99.90;;;;;;5050630;28;20264;-77
2022/06/30 10:41:05;;;;;;;6.07;5.45;;;29.90;99.90;;;;;;5034043;28;20686;-77
2022/06/30 10:43:31;;;;;;;6.00;5.22;;;30.00;99.90;;;;;;5033839;28;20181;-75
2022/06/30 10:46:02;;;;;;;6.45;5.75;;;30.30;99.90;;;;;;5017826;28;20206;-76
2022/06/30 10:48:47;;;;;;;6.38;5.55;;;30.20;99.90;;;;;;5034069;28;20170;-76
2022/06/30 10:51:14;;;;;;;6.32;5.43;;;30.00;99.30;;;;;;5051874;28;20205;-76
2022/06/30 10:53:40;;;;;;;5.97;5.20;;;29.80;99.90;;;;;;5017162;28;20265;-75
2022/06/30 10:56:06;;;;;;;8.65;5.40;;;30.10;99.90;;;;;;5050609;28;20257;-76
2022/06/30 10:58:31;;;;;;;6.05;5.50;;;30.50;99.40;;;;;;5034198;28;20224;-76
2022/06/30 11:01:03;;;;;;;6.47;5.30;;;30.30;98.20;;;;;;5017436;28;20201;-76
2022/06/30 11:03:32;;;;;;;5.53;4.93;;;30.40;97.90;;;;;;5033567;28;20174;-76
2022/06/30 11:06:01;;;;;;;5.68;5.18;;;30.50;97.00;;;;;;5050576;28;20201;-76
2022/06/30 11:08:48;;;;;;;5.63;5.13;;;30.30;96.30;;;;;;5035150;28;20173;-76
2022/06/30 11:11:23;;;;;;;5.13;4.72;;;30.90;97.50;;;;;;5054400;28;20750;-77
2022/06/30 11:13:49;;;;;;;6.07;4.63;;;31.30;94.10;;;;;;5054037;28;20710;-77
2022/06/30 11:16:17;;;;;;;5.60;4.60;;;31.50;93.20;;;;;;5021160;28;20174;-76
2022/06/30 11:18:44;;;;;;;5.20;4.80;;;31.70;91.20;;;;;;5021011;28;20652;-75
2022/06/30 11:21:09;;;;;;;5.43;4.65;;;31.80;88.80;;;;;;5055378;28;20740;-77
2022/06/30 11:23:44;;;;;;;5.45;4.50;;;31.80;89.00;;;;;;5037112;28;20264;-74
2022/06/30 11:28:56;;;;;;;5.00;4.50;;;31.70;87.80;;;;;;5055595;28;20223;-75
2022/06/30 11:31:32;;;;;;;5.80;5.22;;;31.20;85.90;;;;;;5037152;28;20194;-75
2022/06/30 11:34:02;;;;;;;7.68;5.72;;;30.80;90.10;;;;;;5053882;28;20204;-75
2022/06/30 11:36:28;;;;;;;6.55;5.10;;;30.40;93.10;;;;;;5055067;28;20205;-75
2022/06/30 11:39:06;;;;;;;5.47;4.93;;;30.40;94.60;;;;;;5036958;28;20197;-74
2022/06/30 11:44:18;;;;;;;5.55;4.93;;;30.90;92.20;;;;;;5055713;28;20161;-75
2022/06/30 11:46:59;;;;;;;5.40;4.68;;;30.80;91.40;;;;;;5037624;28;20202;-76
2022/06/30 11:49:27;;;;;;;5.95;4.95;;;30.70;93.40;;;;;;5037740;28;20174;-75
2022/06/30 11:51:54;;;;;;;7.95;4.88;;;30.80;91.70;;;;;;5036763;28;20217;-76
2022/06/30 11:54:27;;;;;;;5.68;5.18;;;31.20;91.20;;;;;;5037362;28;20225;-76
2022/06/30 11:56:55;;;;;;;7.45;4.75;;;31.10;90.50;;;;;;5036641;28;20605;-76
2022/06/30 11:59:21;;;;;;;7.80;4.80;;;31.10;88.40;;;;;;5020300;28;20188;-76
2022/06/30 12:02:07;;;;;;;8.77;4.72;;;31.30;90.50;;;;;;5054397;28;20191;-76
2022/06/30 12:04:34;;;;;;;4.68;4.30;;;31.60;90.10;;;;;;5020504;28;20181;-77
2022/06/30 12:07:04;;;;;;;5.47;4.97;;;31.80;89.90;;;;;;5036752;28;20201;-75
2022/06/30 12:09:30;;;;;;;5.50;5.00;;;31.70;87.00;;;;;;5036851;28;20205;-75
2022/06/30 12:11:58;;;;;;;5.82;4.95;;;31.80;86.10;;;;;;5020624;28;20239;-75
2022/06/30 12:14:27;;;;;;;4.95;4.30;;;32.00;83.50;;;;;;5036843;28;20177;-75
2022/06/30 12:16:57;;;;;;;4.82;4.38;;;32.10;80.40;;;;;;5054728;28;20226;-75
2022/06/30 12:19:25;;;;;;;5.13;4.50;;;32.10;78.20;;;;;;5054513;28;20202;-75
2022/06/30 12:21:51;;;;;;;5.80;4.85;;;32.20;79.60;;;;;;5036525;28;20201;-75
2022/06/30 12:24:17;;;;;;;5.18;4.70;;;32.50;77.90;;;;;;5036479;28;20174;-75
2022/06/30 12:26:54;;;;;;;5.90;4.63;;;32.20;76.20;;;;;;5036168;28;20210;-75
2022/06/30 12:29:22;;;;;;;5.40;4.32;;;31.80;77.50;;;;;;5036174;28;20180;-75
2022/06/30 12:31:59;;;;;;;5.10;4.60;;;32.00;81.10;;;;;;5036240;28;20189;-75
2022/06/30 12:34:25;;;;;;;5.57;4.53;;;32.00;77.60;;;;;;5036426;28;20184;-75
2022/06/30 12:36:50;;;;;;;4.68;4.28;;;31.80;77.80;;;;;;5036073;28;20272;-75
2022/06/30 12:39:16;;;;;;;5.70;5.10;;;31.60;81.70;;;;;;5019467;28;20632;-75
2022/06/30 12:41:43;;;;;;;5.03;4.63;;;31.90;78.00;;;;;;5035800;28;20205;-75
2022/06/30 12:44:10;;;;;;;4.32;4.03;;;32.30;79.90;;;;;;5035659;28;20553;-75
2022/06/30 12:46:41;;;;;;;4.97;4.47;;;32.50;79.30;;;;;;5036113;28;20232;-75
2022/06/30 12:49:22;;;;;;;4.85;4.38;;;32.50;75.50;;;;;;5053606;28;20530;-75
2022/06/30 12:51:48;;;;;;;5.53;4.07;;;32.30;74.90;;;;;;5035575;28;20205;-75
2022/06/30 12:54:17;;;;;;;4.63;4.13;;;32.60;75.40;;;;;;5035738;28;20231;-75
2022/06/30 12:56:50;;;;;;;4.18;3.85;;;32.40;71.60;;;;;;5019326;28;20177;-75
2022/06/30 12:59:17;;;;;;;4.53;4.22;;;32.40;72.70;;;;;;5053464;28;20223;-75
2022/06/30 13:01:54;;;;;;;4.47;3.92;;;32.90;74.00;;;;;;5035338;28;20251;-75
2022/06/30 13:04:29;;;;;;;4.20;3.80;;;33.00;65.30;;;;;;5019039;28;20183;-75
2022/06/30 13:06:56;;;;;;;6.28;3.72;;;33.60;67.20;;;;;;5035429;28;20200;-76
2022/06/30 13:09:25;;;;;;;4.85;3.92;;;33.80;68.20;;;;;;5051862;28;20547;-76